sensor_id;sensor_type;location;lat;lon;timestamp;temperature;humidity
57857;DHT22;43683;48.650;9.290;2023-06-10T00:01:12;16.80;58.10
57857;DHT22;43683;48.650;9.290;2023-06-10T00:03:38;16.80;58.30
57857;DHT22;43683;48.650;9.290;2023-06-10T00:06:04;16.80;58.60
57857;DHT22;43683;48.650;9.290;2023-06-10T00:08:30;16.80;58.70
57857;DHT22;43683;48.650;9.290;2023-06-10T00:10:56;16.70;58.70
57857;DHT22;43683;48.650;9.290;2023-06-10T00:13:22;16.70;58.90
57857;DHT22;43683;48.650;9.290;2023-06-10T00:15:47;16.70;59.10
57857;DHT22;43683;48.650;9.290;2023-06-10T00:18:13;16.70;59.30
57857;DHT22;43683;48.650;9.290;2023-06-10T00:20:39;16.50;59.50
57857;DHT22;43683;48.650;9.290;2023-06-10T00:23:05;16.50;59.80
57857;DHT22;43683;48.650;9.290;2023-06-10T00:25:34;16.40;60.00
57857;DHT22;43683;48.650;9.290;2023-06-10T00:27:59;16.30;60.20
57857;DHT22;43683;48.650;9.290;2023-06-10T00:30:25;16.30;60.40
57857;DHT22;43683;48.650;9.290;2023-06-10T00:32:51;16.20;60.60
57857;DHT22;43683;48.650;9.290;2023-06-10T00:35:17;16.20;60.80
57857;DHT22;43683;48.650;9.290;2023-06-10T00:37:42;16.10;60.90
57857;DHT22;43683;48.650;9.290;2023-06-10T00:40:08;16.10;61.10
57857;DHT22;43683;48.650;9.290;2023-06-10T00:42:34;16.00;61.40
57857;DHT22;43683;48.650;9.290;2023-06-10T00:45:00;15.90;61.70
57857;DHT22;43683;48.650;9.290;2023-06-10T00:47:26;15.80;62.10
57857;DHT22;43683;48.650;9.290;2023-06-10T00:49:52;15.70;62.30
57857;DHT22;43683;48.650;9.290;2023-06-10T00:52:18;15.60;62.60
57857;DHT22;43683;48.650;9.290;2023-06-10T00:54:47;15.50;63.00
57857;DHT22;43683;48.650;9.290;2023-06-10T00:57:13;15.40;63.30
57857;DHT22;43683;48.650;9.290;2023-06-10T00:59:40;15.30;63.50
57857;DHT22;43683;48.650;9.290;2023-06-10T01:02:06;15.20;63.80
57857;DHT22;43683;48.650;9.290;2023-06-10T01:04:32;15.10;63.30
57857;DHT22;43683;48.650;9.290;2023-06-10T01:10:22;15.00;64.10
57857;DHT22;43683;48.650;9.290;2023-06-10T01:12:58;14.90;64.30
57857;DHT22;43683;48.650;9.290;2023-06-10T01:15:24;14.90;64.40
57857;DHT22;43683;48.650;9.290;2023-06-10T01:18:17;14.80;64.50
57857;DHT22;43683;48.650;9.290;2023-06-10T01:20:43;14.70;65.20
57857;DHT22;43683;48.650;9.290;2023-06-10T01:23:10;14.60;65.30
57857;DHT22;43683;48.650;9.290;2023-06-10T01:25:41;14.40;65.80
57857;DHT22;43683;48.650;9.290;2023-06-10T01:28:17;14.30;66.50
57857;DHT22;43683;48.650;9.290;2023-06-10T01:33:19;14.00;67.40
57857;DHT22;43683;48.650;9.290;2023-06-10T01:35:48;13.90;67.60
57857;DHT22;43683;48.650;9.290;2023-06-10T01:38:14;13.80;67.80
57857;DHT22;43683;48.650;9.290;2023-06-10T01:40:41;13.80;68.00
57857;DHT22;43683;48.650;9.290;2023-06-10T01:43:07;13.80;67.90
57857;DHT22;43683;48.650;9.290;2023-06-10T01:45:33;13.80;67.80
57857;DHT22;43683;48.650;9.290;2023-06-10T01:47:58;13.80;68.00
57857;DHT22;43683;48.650;9.290;2023-06-10T01:50:24;13.80;68.10
57857;DHT22;43683;48.650;9.290;2023-06-10T01:52:49;13.70;68.40
57857;DHT22;43683;48.650;9.290;2023-06-10T01:55:15;13.60;68.60
57857;DHT22;43683;48.650;9.290;2023-06-10T01:57:40;13.60;68.90
57857;DHT22;43683;48.650;9.290;2023-06-10T02:00:06;13.50;69.10
57857;DHT22;43683;48.650;9.290;2023-06-10T02:02:33;13.50;69.50
57857;DHT22;43683;48.650;9.290;2023-06-10T02:04:58;13.50;69.50
57857;DHT22;43683;48.650;9.290;2023-06-10T02:07:24;13.50;69.60
57857;DHT22;43683;48.650;9.290;2023-06-10T02:09:49;13.50;69.70
57857;DHT22;43683;48.650;9.290;2023-06-10T02:12:15;13.50;69.60
57857;DHT22;43683;48.650;9.290;2023-06-10T02:14:40;13.60;69.60
57857;DHT22;43683;48.650;9.290;2023-06-10T02:17:06;13.50;69.80
57857;DHT22;43683;48.650;9.290;2023-06-10T02:19:32;13.50;70.20
57857;DHT22;43683;48.650;9.290;2023-06-10T02:21:57;13.30;70.40
57857;DHT22;43683;48.650;9.290;2023-06-10T02:24:23;13.30;70.80
57857;DHT22;43683;48.650;9.290;2023-06-10T02:26:48;13.20;71.10
57857;DHT22;43683;48.650;9.290;2023-06-10T02:29:14;13.10;71.20
57857;DHT22;43683;48.650;9.290;2023-06-10T02:31:39;13.00;71.50
57857;DHT22;43683;48.650;9.290;2023-06-10T02:34:06;13.00;71.80
57857;DHT22;43683;48.650;9.290;2023-06-10T02:36:31;12.90;71.90
57857;DHT22;43683;48.650;9.290;2023-06-10T02:38:57;12.90;72.20
57857;DHT22;43683;48.650;9.290;2023-06-10T02:41:22;12.80;72.30
57857;DHT22;43683;48.650;9.290;2023-06-10T02:43:48;12.80;72.50
57857;DHT22;43683;48.650;9.290;2023-06-10T02:46:14;12.70;72.70
57857;DHT22;43683;48.650;9.290;2023-06-10T02:48:43;12.70;73.00
57857;DHT22;43683;48.650;9.290;2023-06-10T02:51:11;12.60;73.30
57857;DHT22;43683;48.650;9.290;2023-06-10T02:53:37;12.60;73.20
57857;DHT22;43683;48.650;9.290;2023-06-10T02:56:03;12.60;73.30
57857;DHT22;43683;48.650;9.290;2023-06-10T02:58:29;12.60;73.20
57857;DHT22;43683;48.650;9.290;2023-06-10T03:00:54;12.70;73.30
57857;DHT22;43683;48.650;9.290;2023-06-10T03:03:20;12.70;73.50
57857;DHT22;43683;48.650;9.290;2023-06-10T03:05:48;12.60;73.70
57857;DHT22;43683;48.650;9.290;2023-06-10T03:08:13;12.50;73.80
57857;DHT22;43683;48.650;9.290;2023-06-10T03:10:39;12.50;74.00
57857;DHT22;43683;48.650;9.290;2023-06-10T03:13:04;12.60;74.20
57857;DHT22;43683;48.650;9.290;2023-06-10T03:15:30;12.60;74.10
57857;DHT22;43683;48.650;9.290;2023-06-10T03:17:59;12.70;74.00
57857;DHT22;43683;48.650;9.290;2023-06-10T03:20:25;12.70;73.90
57857;DHT22;43683;48.650;9.290;2023-06-10T03:22:53;12.70;73.90
57857;DHT22;43683;48.650;9.290;2023-06-10T03:25:18;12.80;73.90
57857;DHT22;43683;48.650;9.290;2023-06-10T03:27:46;12.80;74.20
57857;DHT22;43683;48.650;9.290;2023-06-10T03:30:13;12.80;74.20
57857;DHT22;43683;48.650;9.290;2023-06-10T03:32:39;12.80;74.30
57857;DHT22;43683;48.650;9.290;2023-06-10T03:35:06;12.90;74.30
57857;DHT22;43683;48.650;9.290;2023-06-10T03:37:32;12.90;74.30
57857;DHT22;43683;48.650;9.290;2023-06-10T03:39:58;12.90;74.20
57857;DHT22;43683;48.650;9.290;2023-06-10T03:42:24;13.00;74.20
57857;DHT22;43683;48.650;9.290;2023-06-10T03:44:49;13.10;74.20
57857;DHT22;43683;48.650;9.290;2023-06-10T03:47:15;13.10;74.10
57857;DHT22;43683;48.650;9.290;2023-06-10T03:49:41;13.10;74.10
57857;DHT22;43683;48.650;9.290;2023-06-10T03:52:07;13.10;74.40
57857;DHT22;43683;48.650;9.290;2023-06-10T03:54:32;13.10;74.50
57857;DHT22;43683;48.650;9.290;2023-06-10T03:57:00;13.10;74.50
57857;DHT22;43683;48.650;9.290;2023-06-10T03:59:26;13.20;74.50
57857;DHT22;43683;48.650;9.290;2023-06-10T04:01:51;13.20;74.50
57857;DHT22;43683;48.650;9.290;2023-06-10T04:04:17;13.30;74.60
57857;DHT22;43683;48.650;9.290;2023-06-10T04:06:42;13.30;74.60
57857;DHT22;43683;48.650;9.290;2023-06-10T04:09:09;13.30;74.70
57857;DHT22;43683;48.650;9.290;2023-06-10T04:11:35;13.30;74.80
57857;DHT22;43683;48.650;9.290;2023-06-10T04:14:01;13.30;74.70
57857;DHT22;43683;48.650;9.290;2023-06-10T04:16:27;13.40;74.80
57857;DHT22;43683;48.650;9.290;2023-06-10T04:18:53;13.40;74.90
57857;DHT22;43683;48.650;9.290;2023-06-10T04:21:18;13.50;75.20
57857;DHT22;43683;48.650;9.290;2023-06-10T04:23:44;13.50;75.30
57857;DHT22;43683;48.650;9.290;2023-06-10T04:26:09;13.50;75.20
57857;DHT22;43683;48.650;9.290;2023-06-10T04:28:37;13.60;75.20
57857;DHT22;43683;48.650;9.290;2023-06-10T04:31:03;13.70;75.10
57857;DHT22;43683;48.650;9.290;2023-06-10T04:33:30;13.70;74.90
57857;DHT22;43683;48.650;9.290;2023-06-10T04:35:55;13.80;74.90
57857;DHT22;43683;48.650;9.290;2023-06-10T04:38:21;13.80;74.80
57857;DHT22;43683;48.650;9.290;2023-06-10T04:40:46;13.90;74.70
57857;DHT22;43683;48.650;9.290;2023-06-10T04:43:12;13.90;74.60
57857;DHT22;43683;48.650;9.290;2023-06-10T04:45:38;14.00;74.50
57857;DHT22;43683;48.650;9.290;2023-06-10T04:48:04;14.10;74.40
57857;DHT22;43683;48.650;9.290;2023-06-10T04:50:29;14.10;74.20
57857;DHT22;43683;48.650;9.290;2023-06-10T04:52:55;14.20;74.00
57857;DHT22;43683;48.650;9.290;2023-06-10T04:55:22;14.40;73.90
57857;DHT22;43683;48.650;9.290;2023-06-10T04:57:48;14.50;73.80
57857;DHT22;43683;48.650;9.290;2023-06-10T05:00:14;14.60;73.60
57857;DHT22;43683;48.650;9.290;2023-06-10T05:02:39;14.70;73.50
57857;DHT22;43683;48.650;9.290;2023-06-10T05:05:05;14.80;73.10
57857;DHT22;43683;48.650;9.290;2023-06-10T05:07:31;14.90;72.90
57857;DHT22;43683;48.650;9.290;2023-06-10T05:09:57;15.10;72.70
57857;DHT22;43683;48.650;9.290;2023-06-10T05:12:22;15.30;72.40
57857;DHT22;43683;48.650;9.290;2023-06-10T05:14:48;15.40;72.10
57857;DHT22;43683;48.650;9.290;2023-06-10T05:17:13;15.60;71.90
57857;DHT22;43683;48.650;9.290;2023-06-10T05:19:39;15.80;71.60
57857;DHT22;43683;48.650;9.290;2023-06-10T05:22:04;16.00;71.30
57857;DHT22;43683;48.650;9.290;2023-06-10T05:24:30;16.20;70.80
57857;DHT22;43683;48.650;9.290;2023-06-10T05:26:55;16.40;70.30
57857;DHT22;43683;48.650;9.290;2023-06-10T05:29:21;16.60;70.10
57857;DHT22;43683;48.650;9.290;2023-06-10T05:31:47;16.80;69.70
57857;DHT22;43683;48.650;9.290;2023-06-10T05:34:12;16.90;69.50
57857;DHT22;43683;48.650;9.290;2023-06-10T05:36:38;17.10;69.30
57857;DHT22;43683;48.650;9.290;2023-06-10T05:39:03;17.20;69.00
57857;DHT22;43683;48.650;9.290;2023-06-10T05:41:29;17.40;68.80
57857;DHT22;43683;48.650;9.290;2023-06-10T05:43:55;18.70;65.50
57857;DHT22;43683;48.650;9.290;2023-06-10T05:46:21;21.20;58.80
57857;DHT22;43683;48.650;9.290;2023-06-10T05:48:47;22.90;53.80
57857;DHT22;43683;48.650;9.290;2023-06-10T05:51:12;24.00;50.90
57857;DHT22;43683;48.650;9.290;2023-06-10T05:53:38;24.70;49.20
57857;DHT22;43683;48.650;9.290;2023-06-10T05:56:04;25.30;47.90
57857;DHT22;43683;48.650;9.290;2023-06-10T05:58:29;25.50;47.30
57857;DHT22;43683;48.650;9.290;2023-06-10T06:00:55;25.50;47.50
57857;DHT22;43683;48.650;9.290;2023-06-10T06:03:20;25.90;46.70
57857;DHT22;43683;48.650;9.290;2023-06-10T06:05:46;26.40;46.00
57857;DHT22;43683;48.650;9.290;2023-06-10T06:08:11;26.90;45.20
57857;DHT22;43683;48.650;9.290;2023-06-10T06:10:38;26.80;45.00
57857;DHT22;43683;48.650;9.290;2023-06-10T06:13:04;26.70;45.20
57857;DHT22;43683;48.650;9.290;2023-06-10T06:15:29;26.80;44.80
57857;DHT22;43683;48.650;9.290;2023-06-10T06:17:55;26.80;44.90
57857;DHT22;43683;48.650;9.290;2023-06-10T06:20:22;27.00;44.60
57857;DHT22;43683;48.650;9.290;2023-06-10T06:22:48;27.00;44.60
57857;DHT22;43683;48.650;9.290;2023-06-10T06:25:13;26.60;45.00
57857;DHT22;43683;48.650;9.290;2023-06-10T06:27:39;26.40;45.50
57857;DHT22;43683;48.650;9.290;2023-06-10T06:30:05;26.40;45.50
57857;DHT22;43683;48.650;9.290;2023-06-10T06:32:31;26.30;45.70
57857;DHT22;43683;48.650;9.290;2023-06-10T06:34:57;25.70;47.50
57857;DHT22;43683;48.650;9.290;2023-06-10T06:37:23;25.00;49.30
57857;DHT22;43683;48.650;9.290;2023-06-10T06:39:50;24.20;51.30
57857;DHT22;43683;48.650;9.290;2023-06-10T06:42:16;23.50;53.20
57857;DHT22;43683;48.650;9.290;2023-06-10T06:44:42;23.00;54.80
57857;DHT22;43683;48.650;9.290;2023-06-10T06:47:07;22.60;56.10
57857;DHT22;43683;48.650;9.290;2023-06-10T06:49:33;22.30;56.80
57857;DHT22;43683;48.650;9.290;2023-06-10T06:51:58;22.10;57.40
57857;DHT22;43683;48.650;9.290;2023-06-10T06:54:24;22.10;57.30
57857;DHT22;43683;48.650;9.290;2023-06-10T06:56:50;22.30;57.10
57857;DHT22;43683;48.650;9.290;2023-06-10T06:59:15;22.40;57.00
57857;DHT22;43683;48.650;9.290;2023-06-10T07:01:42;22.50;56.60
57857;DHT22;43683;48.650;9.290;2023-06-10T07:04:08;22.50;56.70
57857;DHT22;43683;48.650;9.290;2023-06-10T07:06:33;22.60;56.50
57857;DHT22;43683;48.650;9.290;2023-06-10T07:08:59;22.60;56.40
57857;DHT22;43683;48.650;9.290;2023-06-10T07:11:24;22.80;56.30
57857;DHT22;43683;48.650;9.290;2023-06-10T07:13:50;23.00;55.90
57857;DHT22;43683;48.650;9.290;2023-06-10T07:16:16;23.00;55.70
57857;DHT22;43683;48.650;9.290;2023-06-10T07:18:41;23.10;55.70
57857;DHT22;43683;48.650;9.290;2023-06-10T07:21:07;23.20;55.50
57857;DHT22;43683;48.650;9.290;2023-06-10T07:23:33;23.50;55.40
57857;DHT22;43683;48.650;9.290;2023-06-10T07:25:58;23.50;55.20
57857;DHT22;43683;48.650;9.290;2023-06-10T07:28:24;23.40;55.50
57857;DHT22;43683;48.650;9.290;2023-06-10T07:30:49;23.50;55.30
57857;DHT22;43683;48.650;9.290;2023-06-10T07:33:15;23.70;55.00
57857;DHT22;43683;48.650;9.290;2023-06-10T07:35:40;23.70;55.00
57857;DHT22;43683;48.650;9.290;2023-06-10T07:38:08;23.70;54.80
57857;DHT22;43683;48.650;9.290;2023-06-10T07:40:33;23.80;54.80
57857;DHT22;43683;48.650;9.290;2023-06-10T07:42:59;23.80;55.00
57857;DHT22;43683;48.650;9.290;2023-06-10T07:45:24;24.10;54.60
57857;DHT22;43683;48.650;9.290;2023-06-10T07:47:50;24.50;54.20
57857;DHT22;43683;48.650;9.290;2023-06-10T07:50:16;24.60;53.80
57857;DHT22;43683;48.650;9.290;2023-06-10T07:52:42;24.50;54.20
57857;DHT22;43683;48.650;9.290;2023-06-10T07:55:07;24.80;54.00
57857;DHT22;43683;48.650;9.290;2023-06-10T07:57:33;25.20;53.20
57857;DHT22;43683;48.650;9.290;2023-06-10T08:00:02;25.20;52.90
57857;DHT22;43683;48.650;9.290;2023-06-10T08:02:29;25.20;52.90
57857;DHT22;43683;48.650;9.290;2023-06-10T08:04:55;25.30;52.40
57857;DHT22;43683;48.650;9.290;2023-06-10T08:07:21;25.30;52.20
57857;DHT22;43683;48.650;9.290;2023-06-10T08:09:47;25.20;52.30
57857;DHT22;43683;48.650;9.290;2023-06-10T08:12:13;25.60;51.70
57857;DHT22;43683;48.650;9.290;2023-06-10T08:14:39;25.70;51.40
57857;DHT22;43683;48.650;9.290;2023-06-10T08:17:04;26.00;51.10
57857;DHT22;43683;48.650;9.290;2023-06-10T08:19:31;26.20;50.60
57857;DHT22;43683;48.650;9.290;2023-06-10T08:21:57;26.20;51.00
57857;DHT22;43683;48.650;9.290;2023-06-10T08:24:23;26.60;50.20
57857;DHT22;43683;48.650;9.290;2023-06-10T08:26:48;26.90;49.60
57857;DHT22;43683;48.650;9.290;2023-06-10T08:29:14;27.40;48.50
57857;DHT22;43683;48.650;9.290;2023-06-10T08:31:42;27.70;47.60
57857;DHT22;43683;48.650;9.290;2023-06-10T08:34:08;28.00;46.40
57857;DHT22;43683;48.650;9.290;2023-06-10T08:36:34;28.10;45.70
57857;DHT22;43683;48.650;9.290;2023-06-10T08:38:59;28.30;45.40
57857;DHT22;43683;48.650;9.290;2023-06-10T08:41:28;28.60;45.50
57857;DHT22;43683;48.650;9.290;2023-06-10T08:44:03;28.50;44.70
57857;DHT22;43683;48.650;9.290;2023-06-10T08:46:32;28.30;44.60
57857;DHT22;43683;48.650;9.290;2023-06-10T08:49:03;28.30;44.70
57857;DHT22;43683;48.650;9.290;2023-06-10T08:51:31;28.40;44.10
57857;DHT22;43683;48.650;9.290;2023-06-10T08:54:03;28.40;44.20
57857;DHT22;43683;48.650;9.290;2023-06-10T08:56:29;28.60;43.80
57857;DHT22;43683;48.650;9.290;2023-06-10T08:58:57;29.00;44.10
57857;DHT22;43683;48.650;9.290;2023-06-10T09:01:24;28.90;43.30
57857;DHT22;43683;48.650;9.290;2023-06-10T09:03:51;28.90;43.10
57857;DHT22;43683;48.650;9.290;2023-06-10T09:06:18;28.50;43.40
57857;DHT22;43683;48.650;9.290;2023-06-10T09:08:43;28.30;43.60
57857;DHT22;43683;48.650;9.290;2023-06-10T09:11:09;28.40;43.50
57857;DHT22;43683;48.650;9.290;2023-06-10T09:13:35;28.20;43.60
57857;DHT22;43683;48.650;9.290;2023-06-10T09:16:00;28.10;43.80
57857;DHT22;43683;48.650;9.290;2023-06-10T09:18:30;28.20;43.60
57857;DHT22;43683;48.650;9.290;2023-06-10T09:20:56;28.30;43.40
57857;DHT22;43683;48.650;9.290;2023-06-10T09:23:21;28.40;43.10
57857;DHT22;43683;48.650;9.290;2023-06-10T09:25:56;28.20;43.30
57857;DHT22;43683;48.650;9.290;2023-06-10T09:28:23;28.20;43.40
57857;DHT22;43683;48.650;9.290;2023-06-10T09:30:49;28.40;43.30
57857;DHT22;43683;48.650;9.290;2023-06-10T09:33:15;28.40;43.20
57857;DHT22;43683;48.650;9.290;2023-06-10T09:35:49;28.20;43.30
57857;DHT22;43683;48.650;9.290;2023-06-10T09:38:19;28.30;43.90
57857;DHT22;43683;48.650;9.290;2023-06-10T09:40:50;28.50;43.10
57857;DHT22;43683;48.650;9.290;2023-06-10T09:43:16;28.60;42.90
57857;DHT22;43683;48.650;9.290;2023-06-10T09:45:42;28.10;43.30
57857;DHT22;43683;48.650;9.290;2023-06-10T09:48:08;28.30;43.10
57857;DHT22;43683;48.650;9.290;2023-06-10T09:50:34;28.30;43.00
57857;DHT22;43683;48.650;9.290;2023-06-10T09:53:00;28.50;42.50
57857;DHT22;43683;48.650;9.290;2023-06-10T09:55:28;28.80;42.10
57857;DHT22;43683;48.650;9.290;2023-06-10T09:57:54;29.30;41.80
57857;DHT22;43683;48.650;9.290;2023-06-10T10:00:20;29.20;41.60
57857;DHT22;43683;48.650;9.290;2023-06-10T10:02:51;29.30;41.70
57857;DHT22;43683;48.650;9.290;2023-06-10T10:05:20;29.40;41.20
57857;DHT22;43683;48.650;9.290;2023-06-10T10:07:47;29.70;41.00
57857;DHT22;43683;48.650;9.290;2023-06-10T10:10:14;29.90;40.60
57857;DHT22;43683;48.650;9.290;2023-06-10T10:12:41;30.00;40.90
57857;DHT22;43683;48.650;9.290;2023-06-10T10:15:11;30.10;40.30
57857;DHT22;43683;48.650;9.290;2023-06-10T10:17:53;29.20;40.80
57857;DHT22;43683;48.650;9.290;2023-06-10T10:20:27;28.80;41.50
57857;DHT22;43683;48.650;9.290;2023-06-10T10:22:59;29.10;40.90
57857;DHT22;43683;48.650;9.290;2023-06-10T10:25:34;29.50;40.40
57857;DHT22;43683;48.650;9.290;2023-06-10T10:28:09;30.00;40.30
57857;DHT22;43683;48.650;9.290;2023-06-10T10:30:40;30.60;39.50
57857;DHT22;43683;48.650;9.290;2023-06-10T10:33:09;30.60;38.80
57857;DHT22;43683;48.650;9.290;2023-06-10T10:35:38;30.70;38.30
57857;DHT22;43683;48.650;9.290;2023-06-10T10:38:04;30.00;38.70
57857;DHT22;43683;48.650;9.290;2023-06-10T10:40:30;29.70;39.00
57857;DHT22;43683;48.650;9.290;2023-06-10T10:42:58;29.60;38.90
57857;DHT22;43683;48.650;9.290;2023-06-10T10:45:27;29.20;39.10
57857;DHT22;43683;48.650;9.290;2023-06-10T10:47:54;28.70;39.40
57857;DHT22;43683;48.650;9.290;2023-06-10T10:50:21;28.30;40.20
57857;DHT22;43683;48.650;9.290;2023-06-10T10:52:59;28.50;40.10
57857;DHT22;43683;48.650;9.290;2023-06-10T10:55:26;28.00;40.40
57857;DHT22;43683;48.650;9.290;2023-06-10T10:57:55;27.60;40.70
57857;DHT22;43683;48.650;9.290;2023-06-10T11:00:27;28.00;40.50
57857;DHT22;43683;48.650;9.290;2023-06-10T11:02:52;28.40;40.10
57857;DHT22;43683;48.650;9.290;2023-06-10T11:05:31;29.10;39.10
57857;DHT22;43683;48.650;9.290;2023-06-10T11:07:57;29.80;38.30
57857;DHT22;43683;48.650;9.290;2023-06-10T11:10:33;30.20;37.90
57857;DHT22;43683;48.650;9.290;2023-06-10T11:13:00;29.90;37.60
57857;DHT22;43683;48.650;9.290;2023-06-10T11:15:27;29.80;37.70
57857;DHT22;43683;48.650;9.290;2023-06-10T11:20:51;28.50;38.80
57857;DHT22;43683;48.650;9.290;2023-06-10T11:28:38;28.60;38.60
57857;DHT22;43683;48.650;9.290;2023-06-10T11:31:03;28.50;38.70
57857;DHT22;43683;48.650;9.290;2023-06-10T11:33:29;28.50;38.80
57857;DHT22;43683;48.650;9.290;2023-06-10T11:35:55;29.50;37.90
57857;DHT22;43683;48.650;9.290;2023-06-10T11:38:21;30.40;37.20
57857;DHT22;43683;48.650;9.290;2023-06-10T11:40:50;30.90;36.70
57857;DHT22;43683;48.650;9.290;2023-06-10T11:43:19;30.90;36.30
57857;DHT22;43683;48.650;9.290;2023-06-10T11:45:45;30.20;36.60
57857;DHT22;43683;48.650;9.290;2023-06-10T11:48:12;30.00;36.80
57857;DHT22;43683;48.650;9.290;2023-06-10T11:50:38;30.30;36.60
57857;DHT22;43683;48.650;9.290;2023-06-10T11:53:04;31.00;36.40
57857;DHT22;43683;48.650;9.290;2023-06-10T11:55:49;30.90;36.20
57857;DHT22;43683;48.650;9.290;2023-06-10T11:58:20;30.10;36.40
57857;DHT22;43683;48.650;9.290;2023-06-10T12:00:54;29.40;37.10
57857;DHT22;43683;48.650;9.290;2023-06-10T12:03:21;29.10;37.20
57857;DHT22;43683;48.650;9.290;2023-06-10T12:06:06;29.40;37.50
57857;DHT22;43683;48.650;9.290;2023-06-10T12:08:32;30.00;37.00
57857;DHT22;43683;48.650;9.290;2023-06-10T12:10:59;30.50;36.50
57857;DHT22;43683;48.650;9.290;2023-06-10T12:13:28;30.90;36.10
57857;DHT22;43683;48.650;9.290;2023-06-10T12:15:54;30.70;36.10
57857;DHT22;43683;48.650;9.290;2023-06-10T12:18:21;30.10;36.60
57857;DHT22;43683;48.650;9.290;2023-06-10T12:20:47;30.00;36.50
57857;DHT22;43683;48.650;9.290;2023-06-10T12:23:16;30.10;36.50
57857;DHT22;43683;48.650;9.290;2023-06-10T12:25:53;30.60;35.80
57857;DHT22;43683;48.650;9.290;2023-06-10T12:28:26;30.80;35.30
57857;DHT22;43683;48.650;9.290;2023-06-10T12:31:05;31.00;35.30
57857;DHT22;43683;48.650;9.290;2023-06-10T12:33:31;31.70;34.80
57857;DHT22;43683;48.650;9.290;2023-06-10T12:35:56;32.30;34.10
57857;DHT22;43683;48.650;9.290;2023-06-10T12:38:26;32.20;34.00
57857;DHT22;43683;48.650;9.290;2023-06-10T12:40:54;32.40;33.60
57857;DHT22;43683;48.650;9.290;2023-06-10T12:43:26;32.70;33.30
57857;DHT22;43683;48.650;9.290;2023-06-10T12:45:51;33.20;33.00
57857;DHT22;43683;48.650;9.290;2023-06-10T12:48:19;33.50;32.70
57857;DHT22;43683;48.650;9.290;2023-06-10T12:50:51;33.30;32.60
57857;DHT22;43683;48.650;9.290;2023-06-10T12:53:16;32.20;33.10
57857;DHT22;43683;48.650;9.290;2023-06-10T12:55:42;31.10;33.90
57857;DHT22;43683;48.650;9.290;2023-06-10T12:58:10;30.60;34.50
57857;DHT22;43683;48.650;9.290;2023-06-10T13:00:36;31.20;34.00
57857;DHT22;43683;48.650;9.290;2023-06-10T13:03:03;31.80;33.50
57857;DHT22;43683;48.650;9.290;2023-06-10T13:05:31;32.40;33.00
57857;DHT22;43683;48.650;9.290;2023-06-10T13:07:57;32.30;33.00
57857;DHT22;43683;48.650;9.290;2023-06-10T13:10:23;32.20;32.80
57857;DHT22;43683;48.650;9.290;2023-06-10T13:12:50;32.40;32.50
57857;DHT22;43683;48.650;9.290;2023-06-10T13:15:16;32.50;32.80
57857;DHT22;43683;48.650;9.290;2023-06-10T13:17:45;32.90;32.70
57857;DHT22;43683;48.650;9.290;2023-06-10T13:20:14;33.10;32.50
57857;DHT22;43683;48.650;9.290;2023-06-10T13:22:40;32.50;32.70
57857;DHT22;43683;48.650;9.290;2023-06-10T13:25:06;31.50;33.50
57857;DHT22;43683;48.650;9.290;2023-06-10T13:27:35;30.30;34.40
57857;DHT22;43683;48.650;9.290;2023-06-10T13:30:03;29.50;35.10
57857;DHT22;43683;48.650;9.290;2023-06-10T13:32:29;29.10;35.50
57857;DHT22;43683;48.650;9.290;2023-06-10T13:34:55;29.70;35.20
57857;DHT22;43683;48.650;9.290;2023-06-10T13:37:20;30.70;34.20
57857;DHT22;43683;48.650;9.290;2023-06-10T13:39:46;31.40;33.10
57857;DHT22;43683;48.650;9.290;2023-06-10T13:42:17;32.10;32.70
57857;DHT22;43683;48.650;9.290;2023-06-10T13:44:43;32.80;32.00
57857;DHT22;43683;48.650;9.290;2023-06-10T13:47:08;33.00;31.90
57857;DHT22;43683;48.650;9.290;2023-06-10T13:49:34;32.40;32.20
57857;DHT22;43683;48.650;9.290;2023-06-10T13:52:00;32.70;32.30
57857;DHT22;43683;48.650;9.290;2023-06-10T13:54:26;32.80;32.20
57857;DHT22;43683;48.650;9.290;2023-06-10T13:56:53;32.20;32.60
57857;DHT22;43683;48.650;9.290;2023-06-10T13:59:19;32.40;32.50
57857;DHT22;43683;48.650;9.290;2023-06-10T14:01:45;32.80;32.10
57857;DHT22;43683;48.650;9.290;2023-06-10T14:04:11;33.10;31.70
57857;DHT22;43683;48.650;9.290;2023-06-10T14:06:37;32.70;32.00
57857;DHT22;43683;48.650;9.290;2023-06-10T14:09:02;31.80;32.60
57857;DHT22;43683;48.650;9.290;2023-06-10T14:11:28;30.80;33.40
57857;DHT22;43683;48.650;9.290;2023-06-10T14:13:53;29.90;34.30
57857;DHT22;43683;48.650;9.290;2023-06-10T14:16:21;29.30;34.60
57857;DHT22;43683;48.650;9.290;2023-06-10T14:18:47;29.80;34.30
57857;DHT22;43683;48.650;9.290;2023-06-10T14:21:12;30.60;33.60
57857;DHT22;43683;48.650;9.290;2023-06-10T14:23:38;31.30;32.80
57857;DHT22;43683;48.650;9.290;2023-06-10T14:26:04;31.90;32.40
57857;DHT22;43683;48.650;9.290;2023-06-10T14:28:31;32.20;32.20
57857;DHT22;43683;48.650;9.290;2023-06-10T14:30:57;32.80;32.10
57857;DHT22;43683;48.650;9.290;2023-06-10T14:33:23;33.10;31.90
57857;DHT22;43683;48.650;9.290;2023-06-10T14:35:48;32.80;32.00
57857;DHT22;43683;48.650;9.290;2023-06-10T14:38:14;31.70;32.70
57857;DHT22;43683;48.650;9.290;2023-06-10T14:40:39;30.70;33.70
57857;DHT22;43683;48.650;9.290;2023-06-10T14:43:05;29.80;34.50
57857;DHT22;43683;48.650;9.290;2023-06-10T14:45:36;29.00;35.30
57857;DHT22;43683;48.650;9.290;2023-06-10T14:48:03;28.40;35.90
57857;DHT22;43683;48.650;9.290;2023-06-10T14:50:29;27.80;36.20
57857;DHT22;43683;48.650;9.290;2023-06-10T14:52:54;27.80;36.60
57857;DHT22;43683;48.650;9.290;2023-06-10T14:55:20;28.60;35.90
57857;DHT22;43683;48.650;9.290;2023-06-10T14:57:45;29.40;35.20
57857;DHT22;43683;48.650;9.290;2023-06-10T15:00:11;29.90;34.60
57857;DHT22;43683;48.650;9.290;2023-06-10T15:02:40;30.50;35.00
57857;DHT22;43683;48.650;9.290;2023-06-10T15:05:06;31.30;33.80
57857;DHT22;43683;48.650;9.290;2023-06-10T15:07:32;31.70;33.40
57857;DHT22;43683;48.650;9.290;2023-06-10T15:09:57;32.00;33.30
57857;DHT22;43683;48.650;9.290;2023-06-10T15:12:23;32.50;32.90
57857;DHT22;43683;48.650;9.290;2023-06-10T15:14:50;32.70;32.90
57857;DHT22;43683;48.650;9.290;2023-06-10T15:17:15;32.70;32.70
57857;DHT22;43683;48.650;9.290;2023-06-10T15:19:41;31.80;33.20
57857;DHT22;43683;48.650;9.290;2023-06-10T15:22:06;31.10;33.90
57857;DHT22;43683;48.650;9.290;2023-06-10T15:24:32;30.10;34.70
57857;DHT22;43683;48.650;9.290;2023-06-10T15:26:57;29.10;35.30
57857;DHT22;43683;48.650;9.290;2023-06-10T15:29:23;28.30;36.00
57857;DHT22;43683;48.650;9.290;2023-06-10T15:31:48;27.90;36.70
57857;DHT22;43683;48.650;9.290;2023-06-10T15:34:14;27.60;36.90
57857;DHT22;43683;48.650;9.290;2023-06-10T15:36:39;27.40;37.10
57857;DHT22;43683;48.650;9.290;2023-06-10T15:39:05;28.10;36.90
57857;DHT22;43683;48.650;9.290;2023-06-10T15:41:32;29.20;36.20